Tiempo atmosférico en la estación meteorológica de Motilla Del Palancar, Cuenca (830 m.)



Fecha
DESCASC
Temp. máxima en grados centígrados (hora)
DESCASC
Temp. mínima en grados centígrados (hora)
DESCASC
Temp. media en grados centígrados
DESCASC
Racha de viento máxima en m/sg (hora)
DESCASC
Velocidad máxima media en intervalos de 10 minutos(hora)
DESCASC
Precipitaciones diarias en mm
DESCASC
Precipitaciones de 00:00 a 06:00 en mm
DESCASC
Precipitaciones de 06:00 a 12:00 en mm
DESCASC
Precipitaciones de 12:00 a 18:00 en mm
DESCASC
Precipitaciones de 18:00 a 24:00 en mm
DESCASC
22-10-2019 8.6 (17:10) 6.6 (00:00) 7.6 9.44 (14:20) 4.72 (14:50) 14 0 5.6 6.2 2.2
13-11-2019 13.9 (15:40) 4.8 (00:00) 9.3 13.89 (11:30) 6.94 (10:40) 4.8 2.4 2.4 0 0
03-11-2019 14.9 (15:50) 9.5 (00:00) 12.2 18.06 (09:10) 10 (07:00) 1 0 1 0 0
14-11-2019 9.4 (02:00) 3.3 (00:00) 6.3 16.67 (11:00) 8.89 (06:10) 2.6 0 0.8 0 1.8
02-11-2019 17.2 (13:20) 12.9 (00:00) 15.1 13.06 (14:40) 6.39 (17:10) 13.4 12.6 0.6 0 0.2
07-11-2019 13 (13:40) 3.3 (00:00) 8.1 12.5 (15:30) 6.67 (15:00) 2 0 0.4 0 1.6
10-11-2019 9.2 (15:20) 3.1 (00:00) 6.1 15.28 (15:40) 8.89 (15:40) 2.2 2.2 0 0 0
04-11-2019 15.2 (14:30) 9.3 (00:00) 12.3 15 (16:20) 8.61 (14:10) 0.8 0 0 0 0.8
05-11-2019 11.8 (17:10) 5.9 (00:00) 8.9 13.89 (15:20) 7.22 (00:30) 2.4 0.8 0 0 1.6
06-11-2019 13 (15:10) 3.4 (00:00) 8.2 10 (15:40) 5.56 (14:10) 0 0 0 0 0
08-11-2019 9.3 (16:00) 1.7 (00:00) 5.5 14.17 (17:10) 6.94 (15:20) 0 0 0 0 0
09-11-2019 10.6 (14:50) 0.7 (00:00) 5.7 10.83 (13:20) 6.39 (13:20) 0.8 0 0 0 0.8
16-11-2019 8.9 (14:40) -0.7 (-00:0) 4.1 10.83 (16:50) 6.11 (16:50) 0 0 0 0 0
11-11-2019 9.4 (15:50) 2 (23:59) 5.7 11.67 (12:40) 6.39 (02:50) 0 0 0 0 0
12-11-2019 12 (15:20) 0.7 (00:00) 6.3 10.83 (12:50) 6.67 (13:00) 0 0 0 0 0
15-11-2019 7.8 (14:00) 0.7 (00:00) 4.3 10.83 (00:50) 5.28 (00:10) 2.4 2.4 0 0 0
18-10-2019 21.3 (16:40) 8.7 (00:00) 15 8.89 (17:30) 5.56 (16:40) 0 0 0 0 0
01-11-2019 19.7 (14:10) 11.5 (00:00) 15.6 10.56 (17:30) 5.83 (16:10) 1 0 0 0.6 0.4
31-10-2019 20.3 (14:50) 13.3 (22:40) 16.8 13.06 (14:20) 5.83 (15:10) 0 0 0 0 0
30-10-2019 20.5 (14:10) 7 (00:00) 13.8 9.17 (15:30) 5 (13:30) 0 0 0 0 0
29-10-2019 18.4 (14:10) 6.5 (00:00) 12.4 8.61 (15:40) 5 (15:40) 0 0 0 0 0
28-10-2019 21.3 (15:20) 9 (00:00) 15.1 6.67 (16:30) 3.89 (15:10) 0 0 0 0 0
27-10-2019 21.6 (16:10) 6.9 (00:00) 14.3 4.72 (13:30) 2.78 (13:30) 0 0 0 0 0
26-10-2019 22.6 (16:00) 6.3 (00:00) 14.5 4.44 (16:00) 3.06 (18:10) 0 0 0 0 0
25-10-2019 21.9 (16:40) 3.3 (00:00) 12.6 6.39 (16:10) 3.89 (15:20) 0 0 0 0 0
24-10-2019 14.6 (17:20) 6.4 (00:00) 10.5 10 (15:40) 5.56 (14:40) 0.2 0.2 0 0 0
23-10-2019 8.9 (13:00) 5.9 (00:00) 7.4 7.5 (12:40) 5.28 (13:00) 5.6 1.6 0 2.2 1.8
21-10-2019 15 (16:30) 3 (00:00) 9 4.72 (15:20) 2.5 (09:50) 0 0 0 0 0
20-10-2019 13.9 (01:40) 6.7 (00:00) 10.3 11.39 (15:50) 7.22 (16:10) 4.8 4.8 0 0 0
19-10-2019 20 (18:20) 11.6 (00:00) 15.8 10.28 (18:10) 6.39 (18:10) 0 0 0 0 0

Gráficas

Temp. máximas Temp. mínimas Temp. medias Precipitaciones Rachas de viento máximas Velocidades máximas media en intervalos de 10 minutos

Datos horarios

Fecha y hora oficial Temperatura (ºC) Velocidad del viento (km/h) Dirección del viento Racha (km/h) Dirección de racha Precipitación (mm) Presión (hPa) Tendencia (hPa) Humedad (%)
2019-11-16 23:00:00 1.4 5 Noroeste 13 Noroeste 0 -- -- 84
2019-11-16 22:00:00 0.9 3 Noroeste 6 Noroeste 0 -- -- 88
2019-11-16 21:00:00 1.4 3 Noroeste 5 Noroeste 0 -- -- 84
2019-11-16 20:00:00 2.5 3 Oeste 7 Sudoeste 0 -- -- 78
2019-11-16 19:00:00 4.1 4 Noroeste 17 Noroeste 0 -- -- 69
2019-11-16 18:00:00 5.7 9 Noroeste 33 Noroeste 0 -- -- 61
2019-11-16 17:00:00 7.4 16 Noroeste 39 Noroeste 0 -- -- 56
2019-11-16 16:00:00 8.4 18 Oeste 32 Oeste 0 -- -- 55
2019-11-16 15:00:00 8.7 17 Noroeste 32 Noroeste 0 -- -- 53
2019-11-16 14:00:00 8.3 18 Norte 31 Noroeste 0 -- -- 40
2019-11-16 13:00:00 7.5 15 Noroeste 25 Noroeste 0 -- -- 47
2019-11-16 12:00:00 6.5 11 Noroeste 21 Noroeste 0 -- -- 61
2019-11-16 11:00:00 4.9 12 Noroeste 20 Noroeste 0 -- -- 71
2019-11-16 10:00:00 3.1 12 Noroeste 20 Noroeste 0 -- -- 82
2019-11-16 09:00:00 0.6 7 Noroeste 18 Oeste 0 -- -- 91
2019-11-16 08:00:00 -0.5 10 Noroeste 17 Oeste 0 -- -- 93
2019-11-16 07:00:00 -0.2 6 Noroeste 13 Noroeste 0 -- -- 90
2019-11-16 06:00:00 0.1 5 Noroeste 15 Oeste 0 -- -- 91
2019-11-16 05:00:00 0.3 8 Noroeste 14 Noroeste 0 -- -- 92
2019-11-16 04:00:00 0.6 7 Noroeste 14 Noroeste 0 -- -- 94
2019-11-16 03:00:00 -0.4 0 Calma 4 Oeste 0 -- -- 92
2019-11-16 02:00:00 0.8 3 Noroeste 8 Noroeste 0 -- -- 91
2019-11-16 01:00:00 0.9 5 Oeste 12 Oeste 0 -- -- 91
2019-11-16 00:00:00 0.7 4 Sudoeste 7 Oeste 0 -- -- 92
2019-11-15 23:00:00 0.9 3 Sudoeste 5 Sudoeste 0 -- -- 89
2019-11-15 22:00:00 2.7 4 Noroeste 7 Noroeste 0 -- -- 82
2019-11-15 21:00:00 4.2 5 Noroeste 12 Noroeste 0 -- -- 79
2019-11-15 20:00:00 5 8 Oeste 18 Oeste 0 -- -- 77
2019-11-15 19:00:00 5.1 6 Oeste 15 Oeste 0 -- -- 81
2019-11-15 18:00:00 5.3 8 Oeste 22 Oeste 0 -- -- 77
2019-11-15 17:00:00 6.1 10 Oeste 24 Noroeste 0 -- -- 70
2019-11-15 16:00:00 6.5 13 Oeste 27 Oeste 0 -- -- 69
2019-11-15 15:00:00 6.7 13 Oeste 33 Oeste 0 -- -- 70
2019-11-15 14:00:00 7.8 15 Oeste 32 Oeste 0 -- -- 67
2019-11-15 13:00:00 7.3 14 Oeste 27 Oeste 0 -- -- 73
2019-11-15 12:00:00 6.1 14 Oeste 33 Oeste 0 -- -- 77
2019-11-15 11:00:00 4.6 18 Noroeste 35 Noroeste 0 -- -- 80
2019-11-15 10:00:00 3.5 13 Oeste 25 Noroeste 0 -- -- 90
2019-11-15 09:00:00 2.3 11 Oeste 21 Noroeste 0 -- -- 91
2019-11-15 08:00:00 2.9 8 Oeste 20 Oeste 0 -- -- 91
2019-11-15 07:00:00 2.9 4 Noroeste 14 Oeste 0 -- -- 92
2019-11-15 06:00:00 2.9 8 Oeste 26 Oeste 0.2 -- -- 88
2019-11-15 05:00:00 2.9 12 Oeste 20 Oeste 0 -- -- 92
2019-11-15 04:00:00 2.9 9 Oeste 24 Oeste 0 -- -- 93
2019-11-15 03:00:00 2.7 10 Oeste 30 Oeste 1.4 -- -- 93
2019-11-15 02:00:00 3.7 18 Oeste 39 Oeste 0.6 -- -- 90
2019-11-15 01:00:00 4.2 17 Oeste 39 Oeste 0.2 -- -- 88
2019-11-15 00:00:00 4.4 21 Oeste 45 Oeste 0 -- -- 88
2019-11-14 23:00:00 4 22 Oeste 41 Sudoeste 0 -- -- 88
2019-11-14 22:00:00 4.5 25 Sudoeste 49 Sudoeste 0 -- -- 86
2019-11-14 21:00:00 4.6 29 Sudoeste 40 Oeste 0.8 -- -- 84
2019-11-14 20:00:00 4.5 15 Oeste 32 Oeste 1 -- -- 86
2019-11-14 19:00:00 5.2 13 Sudoeste 25 Oeste 0 -- -- 78
2019-11-14 18:00:00 5.1 11 Oeste 20 Sudoeste 0 -- -- 82
2019-11-14 17:00:00 6.1 13 Sudoeste 28 Sudoeste 0 -- -- 83
2019-11-14 16:00:00 5.8 13 Oeste 36 Oeste 0 -- -- 79
2019-11-14 15:00:00 6.9 19 Oeste 36 Oeste 0 -- -- 78
2019-11-14 14:00:00 4.7 15 Oeste 29 Oeste 0 -- -- 86
2019-11-14 13:00:00 3.9 11 Oeste 22 Oeste 0 -- -- 91
2019-11-14 12:00:00 3.3 15 Noroeste 47 Norte 0.4 -- -- 91
2019-11-14 11:00:00 5.6 25 Noroeste 60 Oeste 0.4 -- -- 88
2019-11-14 10:00:00 6.6 29 Sudoeste 44 Sudoeste 0 -- -- 93
2019-11-14 09:00:00 6.5 23 Sudoeste 43 Oeste 0 -- -- 89
2019-11-14 08:00:00 6.4 23 Oeste 50 Oeste 0 -- -- 88
2019-11-14 07:00:00 6.8 24 Oeste 54 Oeste 0 -- -- 87
2019-11-14 06:00:00 7.7 29 Sudoeste 48 Oeste 0 -- -- 85
2019-11-14 05:00:00 8.6 20 Oeste 41 Sudoeste 0 -- -- 89
2019-11-14 04:00:00 8.9 21 Oeste 45 Sudoeste 0 -- -- 89
2019-11-14 03:00:00 9.4 28 Sudoeste 48 Sudoeste 0 -- -- 90
2019-11-14 02:00:00 9.4 20 Oeste 38 Sudoeste 0 -- -- 93
2019-11-14 01:00:00 7.9 13 Oeste 25 Oeste 0 -- -- 97
2019-11-14 00:00:00 4.8 0 Calma 6 Oeste 0 -- -- 92
2019-11-13 23:00:00 5.9 0 Calma 5 Noroeste 0 -- -- 90
2019-11-13 22:00:00 7.3 3 Noroeste 6 Sudoeste 0 -- -- 89
2019-11-13 21:00:00 7.7 3 Noroeste 10 Noroeste 0 -- -- 83
2019-11-13 20:00:00 8 6 Oeste 12 Noroeste 0 -- -- 80
2019-11-13 19:00:00 9.7 5 Noroeste 14 Norte 0 -- -- 71
2019-11-13 18:00:00 11.3 7 Noroeste 30 Oeste 0 -- -- 66
2019-11-13 17:00:00 13.6 13 Noroeste 33 Noroeste 0 -- -- 58
2019-11-13 16:00:00 13.8 18 Oeste 36 Noroeste 0 -- -- 58
2019-11-13 15:00:00 13.5 16 Noroeste 35 Noroeste 0 -- -- 60
2019-11-13 14:00:00 13 19 Noroeste 40 Noroeste 0 -- -- 63
2019-11-13 13:00:00 12.2 22 Noroeste 34 Noroeste 0 -- -- 79
2019-11-13 12:00:00 11.1 20 Noroeste 50 Noroeste 2 -- -- 92
2019-11-13 11:00:00 10.7 21 Oeste 46 Oeste 0.2 -- -- 94
2019-11-13 10:00:00 10 19 Oeste 37 Oeste 0 -- -- 95
2019-11-13 09:00:00 9.5 15 Oeste 32 Oeste 0 -- -- 96
2019-11-13 08:00:00 9 18 Oeste 39 Oeste 0 -- -- 97
2019-11-13 07:00:00 8.8 21 Oeste 45 Oeste 0.2 -- -- 97
2019-11-13 06:00:00 8.5 14 Oeste 37 Oeste 0.6 -- -- 97
2019-11-13 05:00:00 7.8 18 Oeste 33 Oeste 1 -- -- 97
2019-11-13 04:00:00 7.2 13 Oeste 31 Oeste 0.8 -- -- 93
2019-11-13 03:00:00 7.1 12 Oeste 25 Oeste 0 -- -- 86
2019-11-13 02:00:00 6.7 13 Oeste 27 Oeste 0 -- -- 85
2019-11-13 01:00:00 6.3 13 Oeste 28 Oeste 0 -- -- 88
2019-11-13 00:00:00 6.3 10 Oeste 20 Oeste 0 -- -- 85
2019-11-12 23:00:00 4.9 4 Oeste 11 Oeste 0 -- -- 82
2019-11-12 22:00:00 4.8 4 Oeste 7 Noroeste 0 -- -- 79
2019-11-12 21:00:00 4.5 0 Calma 10 Noroeste 0 -- -- 79
2019-11-12 20:00:00 5.8 0 Calma 10 Sudoeste 0 -- -- 73
2019-11-12 19:00:00 7.1 5 Sudoeste 23 Noroeste 0 -- -- 70
2019-11-12 18:00:00 8.8 11 Oeste 28 Noroeste 0 -- -- 63
2019-11-12 17:00:00 11 15 Oeste 32 Oeste 0 -- -- 57
2019-11-12 16:00:00 11.7 15 Noroeste 38 Noroeste 0 -- -- 51
2019-11-12 15:00:00 11.9 21 Noroeste 35 Noroeste 0 -- -- 49
2019-11-12 14:00:00 11.6 20 Noroeste 37 Noroeste 0 -- -- 49
2019-11-12 13:00:00 10.9 24 Norte 39 Noroeste 0 -- -- 51
2019-11-12 12:00:00 10.1 17 Noroeste 31 Noroeste 0 -- -- 58
2019-11-12 11:00:00 9.2 12 Noroeste 24 Noroeste 0 -- -- 58
2019-11-12 10:00:00 5.9 6 Noroeste 22 Nordeste 0 -- -- 73
2019-11-12 09:00:00 2.1 6 Oeste 9 Oeste 0 -- -- 94
2019-11-12 08:00:00 1.4 4 Oeste 9 Oeste 0 -- -- 89
2019-11-12 07:00:00 2.4 3 Sudoeste 18 Oeste 0 -- -- 88
2019-11-12 06:00:00 2.2 6 Oeste 13 Oeste 0 -- -- 90
2019-11-12 05:00:00 2.1 4 Oeste 13 Noroeste 0 -- -- 87
2019-11-12 04:00:00 3 0 Calma 18 Noroeste 0 -- -- 83
2019-11-12 03:00:00 3.1 11 Noroeste 18 Noroeste 0 -- -- 85
2019-11-12 02:00:00 2.3 6 Noroeste 13 Noroeste 0 -- -- 88
2019-11-12 01:00:00 3 6 Noroeste 14 Noroeste 0 -- -- 87
2019-11-12 00:00:00 2 2 Sur 11 Noroeste 0 -- -- 89
2019-11-11 23:00:00 4.8 8 Norte 19 Norte 0 -- -- 87
2019-11-11 22:00:00 5.3 8 Noroeste 22 Noroeste 0 -- -- 90
2019-11-11 21:00:00 5.2 0 Calma 8 Oeste 0 -- -- 92
2019-11-11 20:00:00 6.5 4 Oeste 21 Oeste 0 -- -- 91
2019-11-11 19:00:00 7.1 10 Oeste 24 Oeste 0 -- -- 87
2019-11-11 18:00:00 7.8 13 Noroeste 24 Oeste 0 -- -- 82
2019-11-11 17:00:00 8.9 12 Noroeste 31 Noroeste 0 -- -- 75
2019-11-11 16:00:00 9.3 20 Noroeste 33 Noroeste 0 -- -- 71
2019-11-11 15:00:00 9.2 18 Noroeste 35 Noroeste 0 -- -- 71
2019-11-11 14:00:00 8.9 16 Noroeste 36 Noroeste 0 -- -- 70
2019-11-11 13:00:00 7.8 21 Noroeste 42 Noroeste 0 -- -- 72
2019-11-11 12:00:00 7.2 17 Noroeste 31 Noroeste 0 -- -- 75
2019-11-11 11:00:00 5.9 12 Noroeste 20 Noroeste 0 -- -- 76
2019-11-11 10:00:00 4.9 8 Oeste 35 Noroeste 0 -- -- 79
2019-11-11 09:00:00 4.7 16 Noroeste 37 Norte 0 -- -- 76
2019-11-11 08:00:00 4.1 21 Noroeste 39 Noroeste 0 -- -- 77
2019-11-11 07:00:00 3.9 17 Noroeste 35 Noroeste 0 -- -- 78
2019-11-11 06:00:00 3.7 15 Noroeste 32 Noroeste 0 -- -- 78
2019-11-11 05:00:00 3.6 17 Noroeste 36 Noroeste 0 -- -- 78
2019-11-11 04:00:00 3.1 13 Noroeste 35 Norte 0 -- -- 79
2019-11-11 03:00:00 2.9 21 Noroeste 40 Noroeste 0 -- -- 79
2019-11-11 02:00:00 2.3 13 Noroeste 23 Noroeste 0 -- -- 82
2019-11-11 01:00:00 2.7 6 Norte 24 Noroeste 0 -- -- 80
2019-11-11 00:00:00 3.2 17 Norte 46 Noroeste 0 -- -- 79
2019-11-10 23:00:00 3.5 22 Norte 40 Norte 0 -- -- 78
2019-11-10 22:00:00 3.9 23 Noroeste 43 Noroeste 0 -- -- 78
2019-11-10 21:00:00 4.2 20 Noroeste 43 Noroeste 0 -- -- 77
2019-11-10 20:00:00 3.9 12 Noroeste 26 Noroeste 0 -- -- 86
2019-11-10 19:00:00 4.5 17 Noroeste 39 Noroeste 0 -- -- 83
2019-11-10 18:00:00 5.3 15 Noroeste 46 Noroeste 0 -- -- 79
2019-11-10 17:00:00 8 22 Noroeste 54 Noroeste 0 -- -- 66
2019-11-10 16:00:00 8.4 25 Noroeste 55 Noroeste 0 -- -- 60
2019-11-10 15:00:00 8.7 26 Noroeste 50 Norte 0 -- -- 55
2019-11-10 14:00:00 8.9 22 Noroeste 51 Oeste 0 -- -- 60
2019-11-10 13:00:00 8.4 28 Noroeste 46 Noroeste 0 -- -- 60
2019-11-10 12:00:00 7.5 21 Noroeste 42 Noroeste 0 -- -- 66
2019-11-10 11:00:00 6.3 24 Noroeste 47 Noroeste 0 -- -- 71
2019-11-10 10:00:00 5 21 Noroeste 42 Noroeste 0 -- -- 80
2019-11-10 09:00:00 3.6 7 Norte 22 Noroeste 0 -- -- 87
2019-11-10 08:00:00 3.1 12 Noroeste 29 Noroeste 0 -- -- 86
2019-11-10 07:00:00 3.3 9 Noroeste 26 Noroeste 0 -- -- 88
2019-11-10 06:00:00 3.8 15 Noroeste 36 Noroeste 1.2 -- -- 89
2019-11-10 05:00:00 4.5 5 Noroeste 44 Norte 0.6 -- -- 92
2019-11-10 04:00:00 6.2 14 Noroeste 44 Noroeste 0.2 -- -- 89
2019-11-10 03:00:00 6.6 14 Noroeste 33 Noroeste 0 -- -- 91
2019-11-10 02:00:00 7.4 19 Noroeste 40 Noroeste 0 -- -- 93
2019-11-10 01:00:00 7.2 17 Oeste 38 Oeste 0.2 -- -- 97
2019-11-10 00:00:00 6.9 13 Oeste 37 Oeste 0 -- -- 97
2019-11-09 23:00:00 6.6 20 Oeste 39 Oeste 0 -- -- 97
2019-11-09 22:00:00 6.5 16 Oeste 31 Oeste 0.4 -- -- 97
2019-11-09 21:00:00 6.3 11 Oeste 29 Oeste 0.4 -- -- 95
2019-11-09 20:00:00 6.6 12 Oeste 26 Oeste 0 -- -- 92
2019-11-09 19:00:00 7.6 10 Oeste 30 Oeste 0 -- -- 82
2019-11-09 18:00:00 8.9 19 Oeste 37 Oeste 0 -- -- 66
2019-11-09 17:00:00 9.4 9 Oeste 30 Noroeste 0 -- -- 60
2019-11-09 16:00:00 10.1 21 Oeste 39 Oeste 0 -- -- 52
2019-11-09 15:00:00 10.2 18 Oeste 37 Oeste 0 -- -- 54
2019-11-09 14:00:00 10 19 Oeste 39 Oeste 0 -- -- 57
2019-11-09 13:00:00 9.7 18 Oeste 35 Noroeste 0 -- -- 63
2019-11-09 12:00:00 8.3 17 Oeste 29 Oeste 0 -- -- 67
2019-11-09 11:00:00 7 14 Oeste 24 Noroeste 0 -- -- 74
2019-11-09 10:00:00 4.8 13 Oeste 26 Oeste 0 -- -- 83
2019-11-09 09:00:00 1.7 2 Noroeste 15 Noroeste 0 -- -- 92
2019-11-09 08:00:00 1 3 Oeste 9 Noroeste 0 -- -- 93
2019-11-09 07:00:00 0.9 4 Oeste 10 Oeste 0 -- -- 93
2019-11-09 06:00:00 0.8 0 Calma 14 Oeste 0 -- -- 91
2019-11-09 05:00:00 1.1 4 Oeste 10 Oeste 0 -- -- 90
2019-11-09 04:00:00 1.7 6 Oeste 12 Noroeste 0 -- -- 89
2019-11-09 03:00:00 2.9 7 Oeste 17 Noroeste 0 -- -- 83
2019-11-09 02:00:00 3 9 Noroeste 21 Noroeste 0 -- -- 84
2019-11-09 01:00:00 3.4 9 Oeste 17 Oeste 0 -- -- 82
2019-11-09 00:00:00 4.4 9 Oeste 25 Noroeste 0 -- -- 75
2019-11-08 23:00:00 4.9 11 Oeste 24 Noroeste 0 -- -- 72
2019-11-08 22:00:00 5.3 11 Oeste 28 Oeste 0 -- -- 68
2019-11-08 21:00:00 5.7 12 Oeste 22 Oeste 0 -- -- 68
2019-11-08 20:00:00 6.2 9 Oeste 21 Oeste 0 -- -- 68
2019-11-08 19:00:00 7 9 Oeste 23 Oeste 0 -- -- 64
2019-11-08 18:00:00 7.9 14 Oeste 51 Oeste 0 -- -- 62
2019-11-08 17:00:00 8.8 23 Oeste 40 Oeste 0 -- -- 57
2019-11-08 16:00:00 9.3 22 Oeste 44 Oeste 0 -- -- 56
2019-11-08 15:00:00 9 23 Noroeste 42 Noroeste 0 -- -- 60
2019-11-08 14:00:00 8.1 21 Oeste 40 Oeste 0 -- -- 65
2019-11-08 13:00:00 7.4 19 Noroeste 39 Oeste 0 -- -- 68
2019-11-08 12:00:00 6.4 24 Noroeste 39 Oeste 0 -- -- 73
2019-11-08 11:00:00 5.4 22 Oeste 39 Noroeste 0 -- -- 77
2019-11-08 10:00:00 4.2 18 Noroeste 32 Oeste 0 -- -- 82
2019-11-08 09:00:00 2.2 14 Noroeste 27 Oeste 0 -- -- 91
2019-11-08 08:00:00 1.8 8 Oeste 26 Noroeste 0 -- -- 93
2019-11-08 07:00:00 2.5 13 Noroeste 27 Noroeste 0 -- -- 93
2019-11-08 06:00:00 2.5 10 Noroeste 24 Oeste 0 -- -- 93
2019-11-08 05:00:00 3 13 Oeste 22 Oeste 0 -- -- 92
2019-11-08 04:00:00 3.1 8 Noroeste 17 Noroeste 0 -- -- 91
2019-11-08 03:00:00 3.8 9 Oeste 19 Noroeste 0 -- -- 91
2019-11-08 02:00:00 3.5 8 Oeste 17 Oeste 0 -- -- 94
2019-11-08 01:00:00 3.6 2 Noroeste 13 Oeste 0 -- -- 93
2019-11-08 00:00:00 3.5 5 Oeste 18 Noroeste 0.2 -- -- 92
2019-11-07 23:00:00 3.4 10 Noroeste 32 Noroeste 1.2 -- -- 90
2019-11-07 22:00:00 6.2 11 Noroeste 24 Noroeste 0.2 -- -- 74
2019-11-07 21:00:00 5.6 4 Oeste 10 Oeste 0 -- -- 70
2019-11-07 20:00:00 6.9 8 Noroeste 21 Norte 0 -- -- 62
2019-11-07 19:00:00 7.3 10 Noroeste 22 Noroeste 0 -- -- 63
2019-11-07 18:00:00 8.9 13 Noroeste 35 Noroeste 0 -- -- 53
2019-11-07 17:00:00 10.9 19 Noroeste 42 Noroeste 0 -- -- 47
2019-11-07 16:00:00 11.6 19 Noroeste 45 Noroeste 0 -- -- 52
2019-11-07 15:00:00 12.5 24 Noroeste 40 Noroeste 0 -- -- 58
2019-11-07 14:00:00 12.7 22 Noroeste 41 Noroeste 0 -- -- 75
2019-11-07 13:00:00 12.3 18 Oeste 32 Oeste 0 -- -- 81
2019-11-07 12:00:00 11.4 21 Oeste 36 Oeste 0 -- -- 90
2019-11-07 11:00:00 9.4 21 Oeste 39 Oeste 0.2 -- -- 98
2019-11-07 10:00:00 9 17 Oeste 31 Oeste 0 -- -- 99
2019-11-07 09:00:00 8.2 12 Sudoeste 21 Oeste 0 -- -- 98
2019-11-07 08:00:00 7.2 4 Oeste 14 Oeste 0.2 -- -- 98
2019-11-07 07:00:00 6.6 7 Oeste 18 Oeste 0 -- -- 96
2019-11-07 06:00:00 6 6 Oeste 13 Oeste 0 -- -- 95
2019-11-07 05:00:00 4.7 0 Calma 9 Oeste 0 -- -- 93
2019-11-07 04:00:00 4.2 0 Calma 18 Oeste 0 -- -- 93
2019-11-07 03:00:00 4 9 Sudoeste 13 Sudoeste 0 -- -- 94
2019-11-07 02:00:00 4.3 3 Oeste 7 Oeste 0 -- -- 90
2019-11-07 01:00:00 5 0 Calma 11 Oeste 0 -- -- 88
2019-11-07 00:00:00 5.5 4 Oeste 13 Oeste 0 -- -- 87
2019-11-06 23:00:00 5.4 4 Oeste 10 Oeste 0 -- -- 87
2019-11-06 22:00:00 5.5 2 Oeste 12 Noroeste 0 -- -- 84
2019-11-06 21:00:00 6.3 5 Oeste 10 Oeste 0 -- -- 83
2019-11-06 20:00:00 6.9 4 Oeste 10 Oeste 0 -- -- 80
2019-11-06 19:00:00 8.4 3 Oeste 19 Noroeste 0 -- -- 74
2019-11-06 18:00:00 10.3 8 Oeste 29 Oeste 0 -- -- 64
2019-11-06 17:00:00 11.5 12 Noroeste 30 Noroeste 0 -- -- 59
2019-11-06 16:00:00 12.8 17 Oeste 36 Noroeste 0 -- -- 52
2019-11-06 15:00:00 12.9 13 Oeste 33 Oeste 0 -- -- 58
2019-11-06 14:00:00 12.5 17 Oeste 31 Oeste 0 -- -- 56
2019-11-06 13:00:00 12.2 14 Noroeste 30 Noroeste 0 -- -- 62
2019-11-06 12:00:00 11.6 17 Noroeste 31 Noroeste 0 -- -- 63
2019-11-06 11:00:00 10.3 14 Noroeste 28 Noroeste 0 -- -- 68
2019-11-06 10:00:00 7 13 Noroeste 22 Noroeste 0 -- -- 92
2019-11-06 09:00:00 4.2 2 Sudoeste 6 Norte 0 -- -- 96
2019-11-06 08:00:00 3.5 3 Noroeste 14 Oeste 0 -- -- 94
2019-11-06 07:00:00 4.3 8 Oeste 14 Noroeste 0 -- -- 92
2019-11-06 06:00:00 4.8 6 Noroeste 15 Oeste 0 -- -- 93
2019-11-06 05:00:00 4.8 5 Noroeste 14 Noroeste 0 -- -- 95
2019-11-06 04:00:00 4.3 5 Oeste 12 Oeste 0 -- -- 96
2019-11-06 03:00:00 3.5 0 Calma 6 Noroeste 0 -- -- 94
2019-11-06 02:00:00 4.8 2 Este 9 Oeste 0 -- -- 93
2019-11-06 01:00:00 6 6 Noroeste 18 Oeste 0 -- -- 91
2019-11-06 00:00:00 6.1 8 Noroeste 18 Noroeste 0 -- -- 93
2019-11-05 23:00:00 6 9 Oeste 18 Noroeste 0 -- -- 94
2019-11-05 22:00:00 6.1 5 Noroeste 13 Noroeste 0 -- -- 93
2019-11-05 21:00:00 6.6 5 Noroeste 16 Oeste 0 -- -- 91
2019-11-05 20:00:00 7.1 7 Oeste 42 Noroeste 1.6 -- -- 89
2019-11-05 19:00:00 9.7 13 Noroeste 33 Noroeste 0 -- -- 73
2019-11-05 18:00:00 10.9 15 Oeste 40 Sudoeste 0 -- -- 69
2019-11-05 17:00:00 11.6 22 Oeste 50 Oeste 0 -- -- 64
2019-11-05 16:00:00 11.5 20 Oeste 50 Oeste 0 -- -- 65
2019-11-05 15:00:00 11.4 18 Oeste 48 Noroeste 0 -- -- 65
2019-11-05 14:00:00 10.9 26 Noroeste 48 Oeste 0 -- -- 64
2019-11-05 13:00:00 10.2 21 Oeste 44 Oeste 0 -- -- 69
2019-11-05 12:00:00 9.7 21 Oeste 42 Oeste 0 -- -- 73
2019-11-05 11:00:00 9 24 Oeste 41 Oeste 0 -- -- 79
2019-11-05 10:00:00 7.9 20 Noroeste 45 Oeste 0 -- -- 84
2019-11-05 09:00:00 7.5 19 Noroeste 38 Oeste 0 -- -- 86
2019-11-05 08:00:00 7.6 15 Oeste 38 Oeste 0 -- -- 87
2019-11-05 07:00:00 7.9 18 Oeste 42 Noroeste 0 -- -- 86
2019-11-05 06:00:00 8.1 18 Oeste 37 Oeste 0 -- -- 86
2019-11-05 05:00:00 8.2 19 Oeste 40 Oeste 0 -- -- 86
2019-11-05 04:00:00 8.3 16 Noroeste 46 Oeste 0 -- -- 84
2019-11-05 03:00:00 9.2 21 Oeste 42 Oeste 0 -- -- 82
2019-11-05 02:00:00 10.2 19 Oeste 36 Oeste 0 -- -- 80
2019-11-05 01:00:00 10.6 22 Oeste 46 Noroeste 0.8 -- -- 86
2019-11-05 00:00:00 11.4 28 Sudoeste 47 Oeste 0.8 -- -- 92
2019-11-04 23:00:00 11.5 26 Sudoeste 40 Sudoeste 0 -- -- 89
2019-11-04 22:00:00 11.9 24 Sudoeste 46 Sudoeste 0 -- -- 76
2019-11-04 21:00:00 12.6 30 Sudoeste 49 Oeste 0 -- -- 74
2019-11-04 20:00:00 12.2 25 Sudoeste 43 Sudoeste 0 -- -- 74
2019-11-04 19:00:00 12.5 29 Sudoeste 45 Sudoeste 0 -- -- 74
2019-11-04 18:00:00 12.9 22 Oeste 43 Oeste 0 -- -- 70
2019-11-04 17:00:00 13.6 24 Oeste 54 Oeste 0 -- -- 71
2019-11-04 16:00:00 14.2 26 Oeste 46 Oeste 0 -- -- 69
2019-11-04 15:00:00 14.9 26 Oeste 51 Oeste 0 -- -- 67
2019-11-04 14:00:00 14.7 29 Oeste 49 Oeste 0 -- -- 74
2019-11-04 13:00:00 14 19 Oeste 48 Oeste 0 -- -- 81
2019-11-04 12:00:00 13.5 19 Oeste 43 Oeste 0 -- -- 83
2019-11-04 11:00:00 12.3 21 Oeste 44 Oeste 0 -- -- 93
2019-11-04 10:00:00 12.3 22 Oeste 44 Oeste 0 -- -- 91
2019-11-04 09:00:00 11.8 23 Oeste 48 Noroeste 0 -- -- 94
2019-11-04 08:00:00 11.5 20 Oeste 45 Oeste 0 -- -- 95
2019-11-04 07:00:00 11.5 18 Oeste 41 Oeste 0 -- -- 94
2019-11-04 06:00:00 11.2 19 Oeste 40 Oeste 0 -- -- 94
2019-11-04 05:00:00 11.2 21 Oeste 38 Noroeste 0 -- -- 93
2019-11-04 04:00:00 10.8 18 Oeste 35 Oeste 0 -- -- 94
2019-11-04 03:00:00 10.4 15 Oeste 29 Oeste 0 -- -- 94
2019-11-04 02:00:00 10 15 Oeste 32 Oeste 0 -- -- 91
2019-11-04 01:00:00 9.7 12 Oeste 26 Oeste 0 -- -- 86
2019-11-04 00:00:00 9.7 7 Oeste 17 Oeste 0 -- -- 81
2019-11-03 23:00:00 9.7 9 Oeste 23 Oeste 0 -- -- 79
2019-11-03 22:00:00 10 10 Oeste 27 Oeste 0 -- -- 78
2019-11-03 21:00:00 10.3 11 Oeste 23 Noroeste 0 -- -- 75
2019-11-03 20:00:00 11.3 12 Oeste 36 Noroeste 0 -- -- 69
2019-11-03 19:00:00 12 17 Noroeste 40 Noroeste 0 -- -- 66
2019-11-03 18:00:00 13.1 21 Noroeste 43 Noroeste 0 -- -- 63
2019-11-03 17:00:00 14.5 24 Noroeste 47 Noroeste 0 -- -- 59
2019-11-03 16:00:00 14.8 25 Noroeste 48 Noroeste 0 -- -- 57
2019-11-03 15:00:00 14.8 24 Noroeste 55 Noroeste 0 -- -- 61
2019-11-03 14:00:00 14 27 Noroeste 55 Oeste 0 -- -- 60
2019-11-03 13:00:00 13.3 28 Noroeste 53 Noroeste 0 -- -- 75
2019-11-03 12:00:00 12.9 30 Oeste 57 Oeste 1 -- -- 88
2019-11-03 11:00:00 12.8 31 Oeste 60 Oeste 0 -- -- 92
2019-11-03 10:00:00 12.1 34 Oeste 65 Oeste 0 -- -- 91
2019-11-03 09:00:00 11.5 35 Oeste 60 Oeste 0 -- -- 94
2019-11-03 08:00:00 11.2 32 Oeste 63 Oeste 0 -- -- 93
2019-11-03 07:00:00 11.3 36 Oeste 59 Oeste 0 -- -- 91
2019-11-03 06:00:00 11.2 26 Oeste 45 Oeste 0 -- -- 92
2019-11-03 05:00:00 11.1 19 Oeste 41 Oeste 0 -- -- 91
2019-11-03 04:00:00 11.5 24 Oeste 44 Oeste 0 -- -- 91
2019-11-03 03:00:00 11.7 24 Oeste 42 Oeste 0 -- -- 91
2019-11-03 02:00:00 12.2 21 Oeste 41 Oeste 0 -- -- 91
2019-11-03 01:00:00 12.5 21 Oeste 45 Oeste 0 -- -- 90
2019-11-03 00:00:00 13 22 Oeste 41 Oeste 0 -- -- 90
2019-11-02 23:00:00 13.1 17 Oeste 33 Sudoeste 0 -- -- 94
2019-11-02 22:00:00 13.2 18 Sudoeste 31 Sudoeste 0.2 -- -- 92
2019-11-02 21:00:00 13.8 17 Oeste 30 Oeste 0 -- -- 88
2019-11-02 20:00:00 14 16 Oeste 29 Oeste 0 -- -- 85
2019-11-02 19:00:00 14.1 12 Oeste 23 Oeste 0 -- -- 84
2019-11-02 18:00:00 14.1 12 Oeste 39 Oeste 0 -- -- 86
2019-11-02 17:00:00 16 23 Oeste 40 Oeste 0 -- -- 76
2019-11-02 16:00:00 17 21 Oeste 37 Oeste 0 -- -- 70
2019-11-02 15:00:00 15.9 15 Oeste 47 Oeste 0 -- -- 83
2019-11-02 14:00:00 16.6 21 Oeste 42 Oeste 0 -- -- 77
2019-11-02 13:00:00 16.6 20 Oeste 38 Oeste 0 -- -- 81
2019-11-02 12:00:00 16.3 22 Oeste 41 Oeste 0 -- -- 82
2019-11-02 11:00:00 15.3 19 Oeste 40 Oeste 0 -- -- 89
2019-11-02 10:00:00 14.3 17 Oeste 33 Oeste 0 -- -- 95
2019-11-02 09:00:00 13.5 14 Oeste 29 Oeste 0 -- -- 96
2019-11-02 08:00:00 13.2 17 Oeste 39 Oeste 0.2 -- -- 96
2019-11-02 07:00:00 13.4 17 Oeste 34 Oeste 0.4 -- -- 97
2019-11-02 06:00:00 13.5 15 Oeste 33 Oeste 4.2 -- -- 97
2019-11-02 05:00:00 13.5 14 Oeste 33 Oeste 2.2 -- -- 97
2019-11-02 04:00:00 13.7 9 Oeste 26 Oeste 4 -- -- 97
2019-11-02 03:00:00 14 14 Oeste 32 Oeste 0 -- -- 96
2019-11-02 02:00:00 14.2 13 Oeste 27 Oeste 0.2 -- -- 96
2019-11-02 01:00:00 14.3 13 Oeste 36 Oeste 2 -- -- 95
2019-11-02 00:00:00 14.6 17 Oeste 30 Oeste 0.4 -- -- 95
2019-11-01 23:00:00 14.7 10 Oeste 31 Oeste 0 -- -- 93
2019-11-01 22:00:00 15.4 13 Oeste 28 Oeste 0 -- -- 93
2019-11-01 21:00:00 15.7 12 Oeste 28 Oeste 0 -- -- 93
2019-11-01 20:00:00 15.8 9 Oeste 20 Oeste 0 -- -- 93
2019-11-01 19:00:00 15.8 8 Oeste 24 Sudoeste 0 -- -- 93
2019-11-01 18:00:00 16.2 15 Oeste 38 Oeste 0.4 -- -- 91
2019-11-01 17:00:00 18.1 15 Oeste 33 Oeste 0.2 -- -- 79
2019-11-01 16:00:00 19.3 21 Oeste 37 Oeste 0 -- -- 71
2019-11-01 15:00:00 19.3 17 Oeste 34 Oeste 0 -- -- 72
2019-11-01 14:00:00 19.4 18 Oeste 31 Noroeste 0 -- -- 68
2019-11-01 13:00:00 18.4 17 Noroeste 33 Oeste 0 -- -- 74
2019-11-01 12:00:00 18.1 17 Oeste 34 Oeste 0 -- -- 77
2019-11-01 11:00:00 16.6 13 Oeste 28 Oeste 0 -- -- 84
2019-11-01 10:00:00 16 12 Oeste 26 Oeste 0 -- -- 87
2019-11-01 09:00:00 15.1 9 Oeste 26 Oeste 0 -- -- 90
2019-11-01 08:00:00 14.8 10 Oeste 21 Oeste 0 -- -- 93
2019-11-01 07:00:00 14.5 6 Oeste 15 Oeste 0 -- -- 96
2019-11-01 06:00:00 14 5 Oeste 12 Noroeste 0 -- -- 97
2019-11-01 05:00:00 13.7 4 Oeste 13 Oeste 0 -- -- 95
2019-11-01 04:00:00 13.2 7 Oeste 14 Oeste 0 -- -- 94
2019-11-01 03:00:00 11.5 4 Oeste 10 Oeste 0 -- -- 92
2019-11-01 02:00:00 12.4 4 Oeste 8 Oeste 0 -- -- 90
2019-11-01 01:00:00 13.3 4 Oeste 17 Noroeste 0 -- -- 86
2019-11-01 00:00:00 13.8 6 Noroeste 13 Noroeste 0 -- -- 84
2019-10-31 23:00:00 13.6 6 Noroeste 12 Noroeste 0 -- -- 84
2019-10-31 22:00:00 14.3 3 Noroeste 13 Oeste 0 -- -- 81
2019-10-31 21:00:00 15.4 7 Oeste 14 Noroeste 0 -- -- 78
2019-10-31 20:00:00 16.1 6 Noroeste 15 Oeste 0 -- -- 74
2019-10-31 19:00:00 16.9 8 Noroeste 18 Noroeste 0 -- -- 71
2019-10-31 18:00:00 18.1 10 Noroeste 27 Noroeste 0 -- -- 66
2019-10-31 17:00:00 19.5 12 Noroeste 36 Oeste 0 -- -- 60
2019-10-31 16:00:00 20 18 Noroeste 36 Oeste 0 -- -- 57
2019-10-31 15:00:00 20.3 19 Noroeste 47 Oeste 0 -- -- 56
2019-10-31 14:00:00 19.8 19 Noroeste 35 Oeste 0 -- -- 59
2019-10-31 13:00:00 19 18 Oeste 31 Oeste 0 -- -- 64
2019-10-31 12:00:00 17.5 17 Oeste 29 Oeste 0 -- -- 72
2019-10-31 11:00:00 16.1 13 Noroeste 31 Noroeste 0 -- -- 81
2019-10-31 10:00:00 15.5 11 Noroeste 33 Oeste 0 -- -- 83
2019-10-31 09:00:00 14.4 7 Noroeste 15 Noroeste 0 -- -- 91
2019-10-31 08:00:00 13.9 8 Oeste 25 Noroeste 0 -- -- 93
2019-10-31 07:00:00 14.3 11 Noroeste 25 Noroeste 0 -- -- 91
2019-10-31 06:00:00 14.3 8 Oeste 15 Oeste 0 -- -- 90
2019-10-31 05:00:00 14.3 8 Oeste 17 Oeste 0 -- -- 88
2019-10-31 04:00:00 14.3 6 Oeste 11 Noroeste 0 -- -- 87
2019-10-31 03:00:00 14.3 7 Noroeste 14 Noroeste 0 -- -- 85
2019-10-31 02:00:00 14.5 6 Oeste 14 Noroeste 0 -- -- 84
2019-10-31 01:00:00 14.5 4 Oeste 16 Oeste 0 -- -- 84
2019-10-31 00:00:00 14.9 8 Oeste 19 Noroeste 0 -- -- 81
2019-10-30 23:00:00 14.6 5 Noroeste 9 Noroeste 0 -- -- 79
2019-10-30 22:00:00 14.8 5 Noroeste 10 Noroeste 0 -- -- 78
2019-10-30 21:00:00 15.3 3 Noroeste 8 Oeste 0 -- -- 75
2019-10-30 20:00:00 15.7 3 Oeste 8 Noroeste 0 -- -- 71
2019-10-30 19:00:00 16.6 5 Oeste 10 Noroeste 0 -- -- 66
2019-10-30 18:00:00 17.6 6 Oeste 24 Oeste 0 -- -- 62
2019-10-30 17:00:00 18.9 12 Oeste 26 Oeste 0 -- -- 55
2019-10-30 16:00:00 20 15 Oeste 33 Noroeste 0 -- -- 54
2019-10-30 15:00:00 19.6 15 Oeste 28 Oeste 0 -- -- 53
2019-10-30 14:00:00 20.3 15 Oeste 29 Oeste 0 -- -- 54
2019-10-30 13:00:00 19.6 15 Oeste 24 Oeste 0 -- -- 58
2019-10-30 12:00:00 17.9 10 Oeste 17 Oeste 0 -- -- 69
2019-10-30 11:00:00 16.3 6 Oeste 11 Oeste 0 -- -- 79
2019-10-30 10:00:00 13.2 5 Noroeste 9 Oeste 0 -- -- 96
2019-10-30 09:00:00 9.7 0 Calma 4 Nordeste 0 -- -- 99
2019-10-30 08:00:00 7.2 0 Calma 6 Noroeste 0 -- -- 99
2019-10-30 07:00:00 7.6 2 Noroeste 8 Noroeste 0 -- -- 98
2019-10-30 06:00:00 8.2 0 Calma 5 Noroeste 0 -- -- 97
2019-10-30 05:00:00 8.5 0 Calma 8 Norte 0 -- -- 96
2019-10-30 04:00:00 9.7 6 Norte 10 Norte 0 -- -- 98
2019-10-30 03:00:00 7.7 0 Calma 5 Oeste 0 -- -- 97
2019-10-30 02:00:00 8.2 0 Calma 7 Noroeste 0 -- -- 96
2019-10-30 01:00:00 8.8 0 Calma 6 Nordeste 0 -- -- 96
2019-10-30 00:00:00 8.9 0 Calma 5 Noroeste 0 -- -- 95
2019-10-29 23:00:00 9.5 0 Calma 6 Norte 0 -- -- 91
2019-10-29 22:00:00 10.3 0 Calma 7 Norte 0 -- -- 88
2019-10-29 21:00:00 11.7 2 Nordeste 8 Noroeste 0 -- -- 88
2019-10-29 20:00:00 12.5 0 Calma 8 Norte 0 -- -- 85
2019-10-29 19:00:00 13.5 4 Noroeste 17 Noroeste 0 -- -- 83
2019-10-29 18:00:00 14.8 9 Noroeste 26 Noroeste 0 -- -- 79
2019-10-29 17:00:00 16 13 Noroeste 26 Oeste 0 -- -- 76
2019-10-29 16:00:00 17 12 Noroeste 31 Noroeste 0 -- -- 74
2019-10-29 15:00:00 17.9 18 Oeste 28 Oeste 0 -- -- 67
2019-10-29 14:00:00 18.2 14 Oeste 25 Oeste 0 -- -- 66
2019-10-29 13:00:00 17.9 14 Oeste 26 Oeste 0 -- -- 67
2019-10-29 12:00:00 16.9 12 Oeste 21 Oeste 0 -- -- 72
2019-10-29 11:00:00 15.6 12 Oeste 22 Oeste 0 -- -- 79
2019-10-29 10:00:00 12.5 6 Noroeste 13 Noroeste 0 -- -- 89
2019-10-29 09:00:00 9.1 0 Calma 4 Nordeste 0 -- -- 97
2019-10-29 08:00:00 7.2 0 Calma 11 Sudoeste 0 -- -- 97
2019-10-29 07:00:00 6.8 0 Calma 12 Sudoeste 0 -- -- 94
2019-10-29 06:00:00 7.2 3 Nordeste 6 Nordeste 0 -- -- 94
2019-10-29 05:00:00 7.4 0 Calma 4 Nordeste 0 -- -- 94
2019-10-29 04:00:00 7.9 0 Calma 5 Nordeste 0 -- -- 92
2019-10-29 03:00:00 8.7 0 Calma 6 Norte 0 -- -- 89
2019-10-29 02:00:00 9.9 3 Nordeste 6 Nordeste 0 -- -- 90
2019-10-29 01:00:00 10.1 0 Calma 6 Noroeste 0 -- -- 87
2019-10-29 00:00:00 10.6 2 Sur 15 Sudoeste 0 -- -- 85
2019-10-28 23:00:00 11.5 4 Nordeste 8 Norte 0 -- -- 82
2019-10-28 22:00:00 11.4 2 Nordeste 5 Nordeste 0 -- -- 81
2019-10-28 21:00:00 13 0 Calma 11 Noroeste 0 -- -- 75
2019-10-28 20:00:00 14.8 6 Noroeste 12 Noroeste 0 -- -- 68
2019-10-28 19:00:00 16 6 Noroeste 8 Noroeste 0 -- -- 64
2019-10-28 18:00:00 18.2 4 Oeste 15 Oeste 0 -- -- 57
2019-10-28 17:00:00 19.7 8 Oeste 24 Oeste 0 -- -- 51
2019-10-28 16:00:00 21 12 Oeste 23 Sudoeste 0 -- -- 49
2019-10-28 15:00:00 21.2 11 Oeste 22 Oeste 0 -- -- 50
2019-10-28 14:00:00 19.6 7 Oeste 15 Oeste 0 -- -- 54
2019-10-28 13:00:00 16.8 6 Oeste 11 Oeste 0 -- -- 76
2019-10-28 12:00:00 15 4 Sudoeste 13 Sudoeste 0 -- -- 80
2019-10-28 11:00:00 14 3 Oeste 7 Sudoeste 0 -- -- 86
2019-10-28 10:00:00 12.1 4 Nordeste 8 Sudoeste 0 -- -- 92
2019-10-28 09:00:00 10.3 2 Nordeste 9 Sudoeste 0 -- -- 96
2019-10-28 08:00:00 9.3 0 Calma 4 Nordeste 0 -- -- 96
2019-10-28 07:00:00 9.1 2 Nordeste 3 Este 0 -- -- 96
2019-10-28 06:00:00 9.3 2 Nordeste 5 Norte 0 -- -- 95
2019-10-28 05:00:00 10 3 Norte 8 Norte 0 -- -- 95
2019-10-28 04:00:00 9.8 5 Nordeste 12 Este 0 -- -- 95
2019-10-28 03:00:00 9 5 Nordeste 8 Este 0 -- -- 95
2019-10-28 02:00:00 9.2 2 Nordeste 8 Este 0 -- -- 94
2019-10-28 01:00:00 10.2 3 Norte 6 Norte 0 -- -- 90
2019-10-28 00:00:00 10.9 3 Norte 7 Nordeste 0 -- -- 88
2019-10-27 23:00:00 11.5 5 Nordeste 8 Nordeste 0 -- -- 85
2019-10-27 22:00:00 10.9 0 Calma 5 Este 0 -- -- 82
2019-10-27 21:00:00 11.8 3 Norte 8 Nordeste 0 -- -- 80
2019-10-27 20:00:00 13.1 3 Nordeste 4 Norte 0 -- -- 77
2019-10-27 19:00:00 15 0 Calma 5 Sudoeste 0 -- -- 67
2019-10-27 18:00:00 17.9 3 Sur 10 Sur 0 -- -- 60
2019-10-27 17:00:00 21.2 5 Sur 10 Sudoeste 0 -- -- 46
2019-10-27 16:00:00 21.4 5 Sur 10 Sur 0 -- -- 43
2019-10-27 15:00:00 20.7 3 Sudoeste 14 Sur 0 -- -- 47
2019-10-27 14:00:00 20.1 8 Sudeste 17 Sur 0 -- -- 55
2019-10-27 13:00:00 19 7 Sudeste 15 Sudeste 0 -- -- 61
2019-10-27 12:00:00 18.1 4 Sur 11 Sur 0 -- -- 64
2019-10-27 11:00:00 16.3 0 Calma 7 Norte 0 -- -- 72
2019-10-27 10:00:00 12.8 4 Nordeste 11 Nordeste 0 -- -- 84
2019-10-27 09:00:00 8.7 4 Nordeste 13 Nordeste 0 -- -- 94
2019-10-27 08:00:00 6.9 7 Nordeste 11 Nordeste 0 -- -- 95
2019-10-27 07:00:00 7.1 6 Nordeste 13 Nordeste 0 -- -- 95
2019-10-27 06:00:00 7.6 4 Nordeste 10 Nordeste 0 -- -- 94
2019-10-27 05:00:00 8.1 4 Nordeste 10 Nordeste 0 -- -- 94
2019-10-27 04:00:00 8.5 5 Nordeste 9 Nordeste 0 -- -- 95
2019-10-27 03:00:00 8.6 4 Nordeste 8 Nordeste 0 -- -- 94
2019-10-27 02:00:00 8 3 Nordeste 5 Norte 0 -- -- 93
2019-10-27 01:00:00 10.1 3 Nordeste 7 Nordeste 0 -- -- 88
2019-10-27 00:00:00 11.5 4 Norte 9 Nordeste 0 -- -- 86
2019-10-26 23:00:00 12.7 7 Nordeste 14 Nordeste 0 -- -- 82
2019-10-26 22:00:00 11.8 6 Nordeste 13 Nordeste 0 -- -- 78
2019-10-26 21:00:00 13.4 4 Nordeste 7 Nordeste 0 -- -- 73
2019-10-26 20:00:00 15.5 0 Calma 11 Sudoeste 0 -- -- 64
2019-10-26 19:00:00 19.7 6 Sudoeste 13 Sur 0 -- -- 50
2019-10-26 18:00:00 21.6 11 Sur 15 Sur 0 -- -- 43
2019-10-26 17:00:00 22.5 9 Sudoeste 15 Sudoeste 0 -- -- 39
2019-10-26 16:00:00 22.6 7 Sur 16 Sur 0 -- -- 39
2019-10-26 15:00:00 21.8 5 Sur 13 Oeste 0 -- -- 42
2019-10-26 14:00:00 20.9 5 Sur 9 Sudeste 0 -- -- 45
2019-10-26 13:00:00 19.5 3 Sur 9 Sudoeste 0 -- -- 55
2019-10-26 12:00:00 17.4 2 Sudeste 6 Sur 0 -- -- 61
2019-10-26 11:00:00 13 0 Calma 9 Nordeste 0 -- -- 87
2019-10-26 10:00:00 9.2 3 Nordeste 10 Nordeste 0 -- -- 93
2019-10-26 09:00:00 6.6 0 Calma 9 Nordeste 0 -- -- 95
2019-10-26 08:00:00 6.9 3 Nordeste 9 Norte 0 -- -- 95
2019-10-26 07:00:00 6.3 2 Nordeste 6 Nordeste 0 -- -- 95
2019-10-26 06:00:00 6.6 3 Nordeste 5 Nordeste 0 -- -- 96
2019-10-26 05:00:00 6.9 2 Nordeste 6 Norte 0 -- -- 95
2019-10-26 04:00:00 7.1 4 Nordeste 6 Nordeste 0 -- -- 95
2019-10-26 03:00:00 7.5 2 Nordeste 7 Nordeste 0 -- -- 94
2019-10-26 02:00:00 7.9 3 Nordeste 6 Este 0 -- -- 93
2019-10-26 01:00:00 8 0 Calma 5 Nordeste 0 -- -- 91
2019-10-26 00:00:00 8.6 0 Calma 3 Sudoeste 0 -- -- 89
2019-10-25 23:00:00 10.5 2 Nordeste 4 Este 0 -- -- 87
2019-10-25 22:00:00 12.1 2 Noroeste 6 Este 0 -- -- 83
2019-10-25 21:00:00 13.5 2 Noroeste 8 Oeste 0 -- -- 81
2019-10-25 20:00:00 16.1 5 Oeste 14 Oeste 0 -- -- 70
2019-10-25 19:00:00 19.3 8 Oeste 21 Oeste 0 -- -- 59
2019-10-25 18:00:00 21.1 11 Oeste 21 Oeste 0 -- -- 54
2019-10-25 17:00:00 21.9 11 Oeste 23 Oeste 0 -- -- 52
2019-10-25 16:00:00 21.5 13 Oeste 22 Oeste 0 -- -- 51
2019-10-25 15:00:00 21.4 8 Oeste 15 Sudoeste 0 -- -- 58
2019-10-25 14:00:00 18.8 9 Oeste 15 Oeste 0 -- -- 61
2019-10-25 13:00:00 17.3 7 Oeste 12 Noroeste 0 -- -- 71
2019-10-25 12:00:00 15 6 Noroeste 17 Noroeste 0 -- -- 69
2019-10-25 11:00:00 11.8 13 Norte 17 Noroeste 0 -- -- 80
2019-10-25 10:00:00 6.8 3 Nordeste 8 Sudoeste 0 -- -- 99
2019-10-25 09:00:00 4 0 Calma 8 Nordeste 0 -- -- 97
2019-10-25 08:00:00 3.8 4 Nordeste 8 Norte 0 -- -- 97
2019-10-25 07:00:00 3.9 0 Calma 6 Nordeste 0 -- -- 96
2019-10-25 06:00:00 4.2 2 Nordeste 6 Nordeste 0 -- -- 96
2019-10-25 05:00:00 4.4 0 Calma 4 Sudoeste 0 -- -- 95
2019-10-25 04:00:00 5.5 0 Calma 5 Nordeste 0 -- -- 93
2019-10-25 03:00:00 6.2 0 Calma 11 Noroeste 0 -- -- 89
2019-10-25 02:00:00 5.9 0 Calma 7 Noroeste 0 -- -- 93
2019-10-25 01:00:00 6.8 0 Calma 9 Noroeste 0 -- -- 90
2019-10-25 00:00:00 8.7 6 Noroeste 15 Noroeste 0 -- -- 88
2019-10-24 23:00:00 8.4 6 Noroeste 10 Noroeste 0 -- -- 88
2019-10-24 22:00:00 8.9 0 Calma 5 Noroeste 0 -- -- 86
2019-10-24 21:00:00 9.7 3 Oeste 13 Oeste 0 -- -- 82
2019-10-24 20:00:00 11.1 9 Oeste 24 Oeste 0 -- -- 76
2019-10-24 19:00:00 12.8 11 Oeste 31 Noroeste 0 -- -- 67
2019-10-24 18:00:00 14 15 Oeste 32 Oeste 0 -- -- 61
2019-10-24 17:00:00 14.4 16 Oeste 35 Noroeste 0 -- -- 61
2019-10-24 16:00:00 14.2 19 Noroeste 36 Noroeste 0 -- -- 64
2019-10-24 15:00:00 13.8 19 Noroeste 35 Noroeste 0 -- -- 62
2019-10-24 14:00:00 12.6 13 Noroeste 28 Oeste 0 -- -- 69
2019-10-24 13:00:00 11.3 12 Oeste 25 Oeste 0 -- -- 79
2019-10-24 12:00:00 9.6 11 Oeste 24 Oeste 0 -- -- 87
2019-10-24 11:00:00 8.8 15 Noroeste 25 Noroeste 0 -- -- 90
2019-10-24 10:00:00 8 11 Noroeste 24 Oeste 0 -- -- 94
2019-10-24 09:00:00 7.6 5 Oeste 15 Noroeste 0 -- -- 95
2019-10-24 08:00:00 7.6 6 Noroeste 15 Oeste 0 -- -- 94
2019-10-24 07:00:00 8 7 Noroeste 19 Oeste 0 -- -- 95
2019-10-24 06:00:00 7.7 7 Noroeste 15 Noroeste 0 -- -- 97
2019-10-24 05:00:00 7.4 4 Noroeste 12 Noroeste 0.2 -- -- 98
2019-10-24 04:00:00 7.1 6 Noroeste 12 Oeste 0 -- -- 98
2019-10-24 03:00:00 6.6 5 Noroeste 12 Noroeste 0 -- -- 98
2019-10-24 02:00:00 6.4 5 Oeste 10 Oeste 0 -- -- 98
2019-10-24 01:00:00 6.5 5 Oeste 14 Oeste 0 -- -- 97
2019-10-24 00:00:00 7.1 9 Oeste 16 Oeste 0 -- -- 97
2019-10-23 23:00:00 7.3 7 Oeste 18 Sudoeste 0 -- -- 97
2019-10-23 22:00:00 7.4 14 Sudoeste 21 Sudoeste 0 -- -- 97
2019-10-23 21:00:00 7.4 10 Sudoeste 15 Sudoeste 0.6 -- -- 97
2019-10-23 20:00:00 7.2 7 Sudoeste 24 Oeste 1.2 -- -- 96
2019-10-23 19:00:00 7.7 16 Sudoeste 24 Sudoeste 0 -- -- 93
2019-10-23 18:00:00 7.6 9 Oeste 19 Noroeste 1.4 -- -- 91
2019-10-23 17:00:00 8 9 Sudoeste 18 Oeste 0.6 -- -- 92
2019-10-23 16:00:00 7.6 4 Oeste 12 Noroeste 0.2 -- -- 91
2019-10-23 15:00:00 7.9 8 Oeste 26 Sudoeste 0 -- -- 87
2019-10-23 14:00:00 8.7 17 Sudoeste 26 Sudoeste 0 -- -- 85
2019-10-23 13:00:00 8.9 19 Sudoeste 27 Oeste 0 -- -- 85
2019-10-23 12:00:00 7.9 15 Oeste 27 Oeste 0 -- -- 91
2019-10-23 11:00:00 7.5 16 Sudoeste 22 Sudoeste 0 -- -- 93
2019-10-23 10:00:00 6.7 4 Sudoeste 7 Sudoeste 0 -- -- 96
2019-10-23 09:00:00 6.1 3 Oeste 10 Sudoeste 0 -- -- 96
2019-10-23 08:00:00 5.9 3 Oeste 17 Oeste 0 -- -- 95
2019-10-23 07:00:00 6.4 9 Oeste 20 Oeste 0 -- -- 94
2019-10-23 06:00:00 6.3 6 Oeste 21 Oeste 0 -- -- 95
2019-10-23 05:00:00 6.6 10 Oeste 20 Oeste 0 -- -- 95
2019-10-23 04:00:00 6.7 7 Oeste 21 Oeste 0.2 -- -- 96
2019-10-23 03:00:00 7.1 6 Oeste 12 Oeste 0 -- -- 97
2019-10-23 02:00:00 7.3 7 Oeste 13 Sudoeste 0 -- -- 97
2019-10-23 01:00:00 7.4 3 Oeste 7 Noroeste 1.4 -- -- 97
2019-10-23 00:00:00 7.4 3 Oeste 10 Oeste 2.2 -- -- 96
2019-10-22 23:00:00 7.8 4 Noroeste 8 Noroeste 0 -- -- 94
2019-10-22 22:00:00 7.9 2 Noroeste 12 Noroeste 0 -- -- 93
2019-10-22 21:00:00 8 6 Oeste 14 Noroeste 0 -- -- 93
2019-10-22 20:00:00 8.2 5 Oeste 13 Noroeste 0 -- -- 92
2019-10-22 19:00:00 8.5 5 Oeste 17 Noroeste 0 -- -- 91
2019-10-22 18:00:00 8.5 7 Noroeste 15 Oeste 0 -- -- 87
2019-10-22 17:00:00 8.4 6 Norte 26 Nordeste 0.2 -- -- 88
2019-10-22 16:00:00 8.2 11 Nordeste 28 Nordeste 0.4 -- -- 90
2019-10-22 15:00:00 8 11 Nordeste 34 Nordeste 0.2 -- -- 90
2019-10-22 14:00:00 8 16 Nordeste 28 Nordeste 1.4 -- -- 92
2019-10-22 13:00:00 7.9 7 Nordeste 19 Nordeste 4 -- -- 94
2019-10-22 12:00:00 7.7 4 Nordeste 13 Nordeste 2.8 -- -- 94
2019-10-22 11:00:00 7.8 5 Nordeste 16 Este 1.2 -- -- 94
2019-10-22 10:00:00 7.8 6 Nordeste 17 Nordeste 1.4 -- -- 93
2019-10-22 09:00:00 8 5 Este 17 Nordeste 0.2 -- -- 87
2019-10-22 08:00:00 7.7 5 Este 19 Nordeste 0 -- -- 86
2019-10-22 07:00:00 7.8 5 Norte 17 Nordeste 0 -- -- 78
2019-10-22 06:00:00 7.3 6 Nordeste 16 Nordeste 0 -- -- 81
2019-10-22 05:00:00 7.4 7 Nordeste 13 Nordeste 0 -- -- 79
2019-10-22 04:00:00 7.3 5 Nordeste 14 Nordeste 0 -- -- 81
2019-10-22 03:00:00 6.8 3 Nordeste 12 Norte 0 -- -- 84
2019-10-22 02:00:00 6.7 5 Nordeste 11 Nordeste 0 -- -- 84
2019-10-22 01:00:00 7.1 5 Nordeste 10 Nordeste 0 -- -- 83
2019-10-22 00:00:00 7.4 4 Nordeste 8 Nordeste 0 -- -- 82
2019-10-21 23:00:00 7.8 5 Nordeste 10 Nordeste 0 -- -- 79
2019-10-21 22:00:00 7.5 7 Nordeste 11 Nordeste 0 -- -- 78
2019-10-21 21:00:00 9.4 0 Calma 8 Norte 0 -- -- 72
2019-10-21 20:00:00 10.4 0 Calma 6 Nordeste 0 -- -- 65
2019-10-21 19:00:00 12.9 0 Calma 6 Sur 0 -- -- 58
2019-10-21 18:00:00 13.6 3 Este 11 Sudeste 0 -- -- 56
2019-10-21 17:00:00 14.9 6 Sudeste 12 Sudeste 0 -- -- 50
2019-10-21 16:00:00 14.2 3 Sudoeste 17 Oeste 0 -- -- 49
2019-10-21 15:00:00 13.5 4 Sudoeste 16 Sudoeste 0 -- -- 56
2019-10-21 14:00:00 13.2 5 Oeste 14 Oeste 0 -- -- 61
2019-10-21 13:00:00 11.3 5 Norte 13 Norte 0 -- -- 69
2019-10-21 12:00:00 9.3 6 Norte 16 Nordeste 0 -- -- 78
2019-10-21 11:00:00 7.8 8 Norte 13 Norte 0 -- -- 90
2019-10-21 10:00:00 5.2 6 Norte 16 Norte 0 -- -- 99
2019-10-21 09:00:00 3.2 7 Norte 14 Norte 0 -- -- 99
2019-10-21 08:00:00 3.2 5 Nordeste 9 Norte 0 -- -- 98
2019-10-21 07:00:00 4 0 Calma 6 Noroeste 0 -- -- 98
2019-10-21 06:00:00 4.7 2 Norte 5 Noroeste 0 -- -- 97
2019-10-21 05:00:00 3.9 0 Calma 3 Norte 0 -- -- 96
2019-10-21 04:00:00 4.3 0 Calma 6 Sudeste 0 -- -- 95
2019-10-21 03:00:00 5.7 4 Sudeste 9 Sudeste 0 -- -- 96
2019-10-21 02:00:00 4.9 0 Calma 7 Este 0 -- -- 93
2019-10-21 01:00:00 5.8 0 Calma 5 Noroeste 0 -- -- 92
2019-10-21 00:00:00 7 3 Oeste 8 Oeste 0 -- -- 92
2019-10-20 23:00:00 6.7 0 Calma 6 Oeste 0 -- -- 90
2019-10-20 22:00:00 8.1 4 Oeste 17 Oeste 0 -- -- 87
2019-10-20 21:00:00 8.6 4 Oeste 22 Oeste 0 -- -- 83
2019-10-20 20:00:00 9.1 8 Oeste 31 Oeste 0 -- -- 82
2019-10-20 19:00:00 10.6 14 Oeste 32 Oeste 0 -- -- 74
2019-10-20 18:00:00 11.8 19 Oeste 37 Oeste 0 -- -- 66
2019-10-20 17:00:00 12.4 19 Oeste 40 Oeste 0 -- -- 66
2019-10-20 16:00:00 13.3 22 Oeste 41 Oeste 0 -- -- 63
2019-10-20 15:00:00 12.2 20 Oeste 33 Oeste 0 -- -- 76
2019-10-20 14:00:00 11 15 Sudoeste 26 Sudoeste 0 -- -- 78
2019-10-20 13:00:00 10.7 15 Oeste 27 Oeste 0 -- -- 76
2019-10-20 12:00:00 10.9 16 Oeste 30 Oeste 0 -- -- 78
2019-10-20 11:00:00 9.8 13 Oeste 26 Oeste 0 -- -- 89
2019-10-20 10:00:00 10.4 16 Oeste 30 Oeste 0 -- -- 88
2019-10-20 09:00:00 9.7 7 Oeste 14 Noroeste 0 -- -- 93
2019-10-20 08:00:00 10 8 Oeste 28 Sudoeste 0 -- -- 91
2019-10-20 07:00:00 10.5 17 Sudoeste 29 Oeste 0 -- -- 88
2019-10-20 06:00:00 11 9 Sudoeste 31 Oeste 0 -- -- 94
2019-10-20 05:00:00 11.8 18 Sudoeste 27 Sudoeste 2.6 -- -- 96
2019-10-20 04:00:00 12.5 13 Sudoeste 23 Sudoeste 0.2 -- -- 95
2019-10-20 03:00:00 12.9 6 Sudoeste 34 Sudoeste 1.6 -- -- 93
2019-10-20 02:00:00 13.6 13 Sudoeste 21 Sudoeste 0.2 -- -- 88
2019-10-20 01:00:00 13.5 6 Sur 11 Sudoeste 0.2 -- -- 85
2019-10-20 00:00:00 13 4 Sudoeste 9 Sudoeste 0 -- -- 78
2019-10-19 23:00:00 12.3 3 Sur 5 Sur 0 -- -- 75
2019-10-19 22:00:00 13.3 0 Calma 13 Oeste 0 -- -- 70
2019-10-19 21:00:00 15.2 13 Sudoeste 21 Sudoeste 0 -- -- 63
2019-10-19 20:00:00 16.3 15 Sudoeste 24 Oeste 0 -- -- 58
2019-10-19 19:00:00 18.6 18 Sudoeste 37 Sudoeste 0 -- -- 55
2019-10-19 18:00:00 19.8 19 Sudoeste 32 Sudoeste 0 -- -- 51
2019-10-19 17:00:00 18.6 13 Sudoeste 24 Sudoeste 0 -- -- 62
2019-10-19 16:00:00 18.3 15 Sudoeste 25 Sudoeste 0 -- -- 65
2019-10-19 15:00:00 16.6 13 Oeste 23 Oeste 0 -- -- 75
2019-10-19 14:00:00 16.7 10 Oeste 24 Sudoeste 0 -- -- 74
2019-10-19 13:00:00 16.2 16 Sudoeste 22 Oeste 0 -- -- 75
2019-10-19 12:00:00 14.6 10 Sudoeste 19 Sudoeste 0 -- -- 84
2019-10-19 11:00:00 14 11 Sudoeste 18 Oeste 0 -- -- 87
2019-10-19 10:00:00 13 8 Oeste 14 Oeste 0 -- -- 92
2019-10-19 09:00:00 12.9 4 Oeste 11 Sudoeste 0 -- -- 89
2019-10-19 08:00:00 12.8 5 Oeste 11 Sudoeste 0 -- -- 91
2019-10-19 07:00:00 13 7 Sudoeste 10 Sudoeste 0 -- -- 90
2019-10-19 06:00:00 12.8 3 Oeste 6 Oeste 0 -- -- 91
2019-10-19 05:00:00 12.4 3 Oeste 11 Sudoeste 0 -- -- 88
2019-10-19 04:00:00 12.5 5 Sudoeste 8 Sudoeste 0 -- -- 87
2019-10-19 03:00:00 12.1 6 Sudoeste 12 Sudoeste 0 -- -- 85
2019-10-19 02:00:00 12.2 0 Calma 5 Sudoeste 0 -- -- 82
2019-10-19 01:00:00 11.9 0 Calma 3 Nordeste 0 -- -- 83
2019-10-19 00:00:00 12.1 0 Calma 5 Nordeste 0 -- -- 81
2019-10-18 23:00:00 12.4 0 Calma 4 Nordeste 0 -- -- 81
2019-10-18 22:00:00 12.8 2 Nordeste 4 Nordeste 0 -- -- 79
2019-10-18 21:00:00 14.1 0 Calma 4 Oeste 0 -- -- 74
2019-10-18 20:00:00 16.9 3 Sudoeste 15 Oeste 0 -- -- 63
2019-10-18 19:00:00 19.3 9 Oeste 26 Oeste 0 -- -- 59
2019-10-18 18:00:00 20.5 15 Sudoeste 32 Sudoeste 0 -- -- 54
2019-10-18 17:00:00 20.7 19 Oeste 30 Oeste 0 -- -- 55
2019-10-18 16:00:00 20.5 15 Oeste 28 Oeste 0 -- -- 60
2019-10-18 15:00:00 19.6 14 Oeste 29 Oeste 0 -- -- 66
2019-10-18 14:00:00 18.2 14 Oeste 28 Oeste 0 -- -- 71
2019-10-18 13:00:00 18 13 Oeste 26 Oeste 0 -- -- 71
2019-10-18 12:00:00 16.5 13 Oeste 21 Oeste 0 -- -- 78
2019-10-18 11:00:00 14.6 2 Oeste 6 Noroeste 0 -- -- 80
2019-10-18 10:00:00 13.2 0 Calma 5 Sudoeste 0 -- -- 84
2019-10-18 09:00:00 12.4 0 Calma 8 Sudoeste 0 -- -- 84
2019-10-18 08:00:00 11.8 2 Oeste 6 Noroeste 0 -- -- 89
2019-10-18 07:00:00 10.7 2 Noroeste 4 Noroeste 0 -- -- 90
2019-10-18 06:00:00 10 2 Nordeste 5 Nordeste 0 -- -- 90
2019-10-18 05:00:00 9.2 3 Este 7 Nordeste 0 -- -- 90
2019-10-18 04:00:00 8.8 4 Nordeste 6 Nordeste 0 -- -- 91
2019-10-18 03:00:00 8.7 0 Calma 4 Sudoeste 0 -- -- 90
2019-10-18 02:00:00 9.5 0 Calma 4 Nordeste 0 -- -- 86
2019-10-18 01:00:00 10.8 5 Nordeste 6 Nordeste 0 -- -- 84
2019-10-18 00:00:00 12.1 5 Norte 11 Norte 0 -- -- 83